sensor_id;sensor_type;location;lat;lon;timestamp;pressure;altitude;pressure_sealevel;temperature;humidity
74637;BME280;63141;54.616;39.754;2022-12-29T00:02:51;99931.25;;;23.23;28.17
74637;BME280;63141;54.616;39.754;2022-12-29T00:05:57;99922.34;;;23.24;28.06
74637;BME280;63141;54.616;39.754;2022-12-29T00:08:59;99908.25;;;23.22;28.21
74637;BME280;63141;54.616;39.754;2022-12-29T00:12:02;99914.44;;;23.23;28.13
74637;BME280;63141;54.616;39.754;2022-12-29T00:15:04;99916.22;;;23.22;28.19
74637;BME280;63141;54.616;39.754;2022-12-29T00:18:31;99917.97;;;23.23;28.04
74637;BME280;63141;54.616;39.754;2022-12-29T00:21:32;99922.41;;;23.23;28.08
74637;BME280;63141;54.616;39.754;2022-12-29T00:24:52;99928.66;;;23.21;27.96
74637;BME280;63141;54.616;39.754;2022-12-29T00:28:08;99922.41;;;23.23;28.12
74637;BME280;63141;54.616;39.754;2022-12-29T00:31:27;99921.66;;;23.20;28.13
74637;BME280;63141;54.616;39.754;2022-12-29T00:38:12;99927.81;;;23.21;28.25
74637;BME280;63141;54.616;39.754;2022-12-29T00:41:32;99926.06;;;23.20;27.94
74637;BME280;63141;54.616;39.754;2022-12-29T00:44:52;99923.41;;;23.20;28.06
74637;BME280;63141;54.616;39.754;2022-12-29T00:47:53;99934.03;;;23.20;28.01
74637;BME280;63141;54.616;39.754;2022-12-29T00:50:56;99928.81;;;23.18;27.91
74637;BME280;63141;54.616;39.754;2022-12-29T00:53:57;99931.38;;;23.20;28.04
74637;BME280;63141;54.616;39.754;2022-12-29T00:56:58;99927.03;;;23.19;28.01
74637;BME280;63141;54.616;39.754;2022-12-29T01:00:00;99934.13;;;23.18;27.88
74637;BME280;63141;54.616;39.754;2022-12-29T01:03:01;99939.44;;;23.18;27.87
74637;BME280;63141;54.616;39.754;2022-12-29T01:06:09;99941.16;;;23.19;27.97
74637;BME280;63141;54.616;39.754;2022-12-29T01:09:12;99941.16;;;23.19;27.89
74637;BME280;63141;54.616;39.754;2022-12-29T01:12:33;99949.13;;;23.19;27.87
74637;BME280;63141;54.616;39.754;2022-12-29T01:15:50;99946.47;;;23.19;27.81
74637;BME280;63141;54.616;39.754;2022-12-29T01:18:52;99953.66;;;23.17;27.97
74637;BME280;63141;54.616;39.754;2022-12-29T01:21:56;99955.38;;;23.18;27.83
74637;BME280;63141;54.616;39.754;2022-12-29T01:24:57;99950.94;;;23.19;27.84
74637;BME280;63141;54.616;39.754;2022-12-29T01:27:58;99950.94;;;23.19;27.67
74637;BME280;63141;54.616;39.754;2022-12-29T01:31:01;99952.63;;;23.20;27.92
74637;BME280;63141;54.616;39.754;2022-12-29T01:34:07;99948.28;;;23.19;27.94
74637;BME280;63141;54.616;39.754;2022-12-29T01:37:09;99951.78;;;23.19;27.77
74637;BME280;63141;54.616;39.754;2022-12-29T01:40:10;99961.56;;;23.19;27.66
74637;BME280;63141;54.616;39.754;2022-12-29T01:43:44;99964.22;;;23.19;27.89
74637;BME280;63141;54.616;39.754;2022-12-29T01:46:48;99972.19;;;23.19;27.93
74637;BME280;63141;54.616;39.754;2022-12-29T01:49:54;99972.19;;;23.19;27.89
74637;BME280;63141;54.616;39.754;2022-12-29T01:53:03;99966.03;;;23.18;27.91
74637;BME280;63141;54.616;39.754;2022-12-29T01:56:10;99969.53;;;23.19;27.67
74637;BME280;63141;54.616;39.754;2022-12-29T01:59:18;99966.88;;;23.19;27.87
74637;BME280;63141;54.616;39.754;2022-12-29T02:02:22;99969.53;;;23.19;27.79
74637;BME280;63141;54.616;39.754;2022-12-29T02:05:40;99966.88;;;23.19;27.73
74637;BME280;63141;54.616;39.754;2022-12-29T02:08:50;99972.19;;;23.19;27.84
74637;BME280;63141;54.616;39.754;2022-12-29T02:11:53;99970.44;;;23.18;27.66
74637;BME280;63141;54.616;39.754;2022-12-29T02:14:58;99975.75;;;23.18;27.66
74637;BME280;63141;54.616;39.754;2022-12-29T02:37:22;99996.94;;;23.19;27.51
74637;BME280;63141;54.616;39.754;2022-12-29T02:43:42;100002.31;;;23.18;27.75
74637;BME280;63141;54.616;39.754;2022-12-29T02:47:04;100007.66;;;23.18;27.82
74637;BME280;63141;54.616;39.754;2022-12-29T02:50:26;100004.06;;;23.19;27.71
74637;BME280;63141;54.616;39.754;2022-12-29T02:53:33;100008.53;;;23.18;27.88
74637;BME280;63141;54.616;39.754;2022-12-29T02:56:54;100005.94;;;23.17;27.81
74637;BME280;63141;54.616;39.754;2022-12-29T03:00:08;100018.28;;;23.18;27.78
74637;BME280;63141;54.616;39.754;2022-12-29T03:17:12;100028.91;;;23.18;27.61
74637;BME280;63141;54.616;39.754;2022-12-29T03:20:20;100043.91;;;23.19;27.57
74637;BME280;63141;54.616;39.754;2022-12-29T03:23:28;100043.97;;;23.17;27.63
74637;BME280;63141;54.616;39.754;2022-12-29T03:26:31;100045.72;;;23.18;27.70
74637;BME280;63141;54.616;39.754;2022-12-29T03:29:36;100029.84;;;23.17;27.69
74637;BME280;63141;54.616;39.754;2022-12-29T03:32:46;100048.44;;;23.17;27.84
74637;BME280;63141;54.616;39.754;2022-12-29T03:35:51;100062.72;;;23.14;27.99
74637;BME280;63141;54.616;39.754;2022-12-29T03:39:08;100062.78;;;23.13;27.76
74637;BME280;63141;54.616;39.754;2022-12-29T03:42:15;100066.41;;;23.12;27.78
74637;BME280;63141;54.616;39.754;2022-12-29T03:45:19;100067.31;;;23.11;27.96
74637;BME280;63141;54.616;39.754;2022-12-29T03:48:20;100066.50;;;23.09;27.67
74637;BME280;63141;54.616;39.754;2022-12-29T03:51:24;100067.41;;;23.09;27.68
74637;BME280;63141;54.616;39.754;2022-12-29T03:54:44;100078.03;;;23.09;27.67
74637;BME280;63141;54.616;39.754;2022-12-29T03:57:46;100078.94;;;23.08;27.57
74637;BME280;63141;54.616;39.754;2022-12-29T04:00:55;100068.41;;;23.07;27.73
74637;BME280;63141;54.616;39.754;2022-12-29T04:03:57;100072.81;;;23.06;27.78
74637;BME280;63141;54.616;39.754;2022-12-29T04:07:01;100068.41;;;23.07;27.70
74637;BME280;63141;54.616;39.754;2022-12-29T04:10:02;100071.97;;;23.06;27.64
74637;BME280;63141;54.616;39.754;2022-12-29T04:13:06;100080.88;;;23.05;27.66
74637;BME280;63141;54.616;39.754;2022-12-29T04:16:07;100086.19;;;23.05;27.49
74637;BME280;63141;54.616;39.754;2022-12-29T04:19:10;100076.47;;;23.04;27.54
74637;BME280;63141;54.616;39.754;2022-12-29T04:22:12;100074.69;;;23.04;27.51
74637;BME280;63141;54.616;39.754;2022-12-29T04:25:14;100095.09;;;23.04;27.49
74637;BME280;63141;54.616;39.754;2022-12-29T04:28:17;100086.19;;;23.05;27.54
74637;BME280;63141;54.616;39.754;2022-12-29T04:31:57;100078.22;;;23.05;27.26
74637;BME280;63141;54.616;39.754;2022-12-29T04:34:59;100077.28;;;23.06;27.35
74637;BME280;63141;54.616;39.754;2022-12-29T04:38:00;100080.88;;;23.05;27.63
74637;BME280;63141;54.616;39.754;2022-12-29T04:41:02;100085.31;;;23.04;27.36
74637;BME280;63141;54.616;39.754;2022-12-29T04:44:04;100077.44;;;23.03;27.26
74637;BME280;63141;54.616;39.754;2022-12-29T04:47:11;100082.66;;;23.04;27.47
74637;BME280;63141;54.616;39.754;2022-12-29T04:50:39;100086.31;;;23.02;27.20
74637;BME280;63141;54.616;39.754;2022-12-29T04:53:52;100087.19;;;23.02;27.28
74637;BME280;63141;54.616;39.754;2022-12-29T04:56:53;100086.25;;;23.03;27.26
74637;BME280;63141;54.616;39.754;2022-12-29T04:59:54;100081.88;;;23.02;27.29
74637;BME280;63141;54.616;39.754;2022-12-29T05:02:57;100090.78;;;23.01;27.10
74637;BME280;63141;54.616;39.754;2022-12-29T05:06:04;100091.63;;;23.02;27.21
74637;BME280;63141;54.616;39.754;2022-12-29T05:09:06;100085.47;;;23.01;27.43
74637;BME280;63141;54.616;39.754;2022-12-29T05:12:09;100100.53;;;23.00;27.23
74637;BME280;63141;54.616;39.754;2022-12-29T05:15:15;100098.78;;;22.99;27.34
74637;BME280;63141;54.616;39.754;2022-12-29T05:18:17;100100.53;;;23.00;27.21
74637;BME280;63141;54.616;39.754;2022-12-29T05:21:19;100103.25;;;22.99;27.14
74637;BME280;63141;54.616;39.754;2022-12-29T05:24:21;100107.56;;;23.02;27.22
74637;BME280;63141;54.616;39.754;2022-12-29T05:27:22;100096.03;;;23.03;27.34
74637;BME280;63141;54.616;39.754;2022-12-29T05:30:43;100100.41;;;23.04;27.26
74637;BME280;63141;54.616;39.754;2022-12-29T05:33:44;100108.31;;;23.05;27.34
74637;BME280;63141;54.616;39.754;2022-12-29T05:36:46;100109.16;;;23.06;27.24
74637;BME280;63141;54.616;39.754;2022-12-29T05:39:49;100122.44;;;23.06;27.24
74637;BME280;63141;54.616;39.754;2022-12-29T05:43:09;100119.72;;;23.07;27.32
74637;BME280;63141;54.616;39.754;2022-12-29T05:46:31;100131.22;;;23.08;27.15
74637;BME280;63141;54.616;39.754;2022-12-29T05:49:41;100139.19;;;23.08;27.24
74637;BME280;63141;54.616;39.754;2022-12-29T05:52:44;100152.47;;;23.08;27.34
74637;BME280;63141;54.616;39.754;2022-12-29T05:55:47;100146.22;;;23.09;27.36
74637;BME280;63141;54.616;39.754;2022-12-29T05:58:49;100147.16;;;23.08;27.12
74637;BME280;63141;54.616;39.754;2022-12-29T06:01:50;100153.25;;;23.10;27.30
74637;BME280;63141;54.616;39.754;2022-12-29T06:04:57;100153.25;;;23.10;27.23
74637;BME280;63141;54.616;39.754;2022-12-29T06:07:58;100145.28;;;23.10;26.93
74637;BME280;63141;54.616;39.754;2022-12-29T06:11:18;100151.50;;;23.09;27.26
74637;BME280;63141;54.616;39.754;2022-12-29T06:14:26;100153.25;;;23.10;27.11
74637;BME280;63141;54.616;39.754;2022-12-29T06:17:27;100154.97;;;23.11;27.23
74637;BME280;63141;54.616;39.754;2022-12-29T06:20:29;100164.75;;;23.10;27.26
74637;BME280;63141;54.616;39.754;2022-12-29T06:26:50;100149.66;;;23.11;27.25
74637;BME280;63141;54.616;39.754;2022-12-29T06:29:52;100165.59;;;23.11;27.23
74637;BME280;63141;54.616;39.754;2022-12-29T06:32:53;100167.34;;;23.12;27.03
74637;BME280;63141;54.616;39.754;2022-12-29T06:35:55;100162.03;;;23.12;27.27
74637;BME280;63141;54.616;39.754;2022-12-29T06:38:56;100166.41;;;23.13;27.22
74637;BME280;63141;54.616;39.754;2022-12-29T06:41:58;100168.16;;;23.14;27.19
74637;BME280;63141;54.616;39.754;2022-12-29T06:45:39;100174.38;;;23.13;27.18
74637;BME280;63141;54.616;39.754;2022-12-29T06:48:41;100168.19;;;23.12;27.26
74637;BME280;63141;54.616;39.754;2022-12-29T06:51:43;100166.41;;;23.13;27.26
74637;BME280;63141;54.616;39.754;2022-12-29T07:01:07;100156.56;;;23.15;27.11
74637;BME280;63141;54.616;39.754;2022-12-29T07:04:09;100167.19;;;23.15;27.30
74637;BME280;63141;54.616;39.754;2022-12-29T07:07:12;100178.69;;;23.15;27.18
74637;BME280;63141;54.616;39.754;2022-12-29T07:10:14;100173.38;;;23.15;27.32
74637;BME280;63141;54.616;39.754;2022-12-29T07:13:15;100181.28;;;23.17;27.10
74637;BME280;63141;54.616;39.754;2022-12-29T07:16:17;100175.97;;;23.17;27.16
74637;BME280;63141;54.616;39.754;2022-12-29T07:19:18;100179.56;;;23.16;27.32
74637;BME280;63141;54.616;39.754;2022-12-29T07:22:19;100180.44;;;23.16;27.10
74637;BME280;63141;54.616;39.754;2022-12-29T07:25:21;100179.56;;;23.16;27.09
74637;BME280;63141;54.616;39.754;2022-12-29T07:28:23;100188.31;;;23.18;27.24
74637;BME280;63141;54.616;39.754;2022-12-29T07:31:24;100179.47;;;23.17;27.23
74637;BME280;63141;54.616;39.754;2022-12-29T07:34:25;100180.34;;;23.18;27.22
74637;BME280;63141;54.616;39.754;2022-12-29T07:37:27;100175.03;;;23.18;27.22
74637;BME280;63141;54.616;39.754;2022-12-29T07:40:28;100169.81;;;23.16;27.04
74637;BME280;63141;54.616;39.754;2022-12-29T07:43:29;100190.91;;;23.19;26.93
74637;BME280;63141;54.616;39.754;2022-12-29T07:46:49;100190.91;;;23.19;27.22
74637;BME280;63141;54.616;39.754;2022-12-29T07:49:50;100196.22;;;23.19;27.15
74637;BME280;63141;54.616;39.754;2022-12-29T07:52:51;100184.75;;;23.19;27.17
74637;BME280;63141;54.616;39.754;2022-12-29T07:55:53;100186.44;;;23.20;27.06
74637;BME280;63141;54.616;39.754;2022-12-29T07:58:54;100181.13;;;23.20;27.04
74637;BME280;63141;54.616;39.754;2022-12-29T08:01:55;100187.34;;;23.20;27.17
74637;BME280;63141;54.616;39.754;2022-12-29T08:05:02;100186.44;;;23.20;27.17
74637;BME280;63141;54.616;39.754;2022-12-29T08:08:03;100187.34;;;23.20;27.11
74637;BME280;63141;54.616;39.754;2022-12-29T08:11:05;100188.19;;;23.21;27.10
74637;BME280;63141;54.616;39.754;2022-12-29T08:14:06;100189.13;;;23.20;27.08
74637;BME280;63141;54.616;39.754;2022-12-29T08:17:08;100186.41;;;23.21;27.19
74637;BME280;63141;54.616;39.754;2022-12-29T08:20:09;100194.38;;;23.21;27.09
74637;BME280;63141;54.616;39.754;2022-12-29T08:23:11;100188.19;;;23.21;27.20
74637;BME280;63141;54.616;39.754;2022-12-29T08:26:12;100189.91;;;23.22;27.01
74637;BME280;63141;54.616;39.754;2022-12-29T08:29:13;100192.50;;;23.24;27.12
74637;BME280;63141;54.616;39.754;2022-12-29T08:32:15;100191.66;;;23.23;27.14
74637;BME280;63141;54.616;39.754;2022-12-29T08:35:17;100189.00;;;23.23;26.90
74637;BME280;63141;54.616;39.754;2022-12-29T08:38:18;100183.69;;;23.23;27.05
74637;BME280;63141;54.616;39.754;2022-12-29T08:41:19;100197.81;;;23.24;27.06
74637;BME280;63141;54.616;39.754;2022-12-29T08:44:21;100197.81;;;23.24;27.20
74637;BME280;63141;54.616;39.754;2022-12-29T08:47:22;100197.81;;;23.24;27.14
74637;BME280;63141;54.616;39.754;2022-12-29T08:50:24;100204.00;;;23.24;27.21
74637;BME280;63141;54.616;39.754;2022-12-29T08:53:25;100200.47;;;23.24;27.17
74637;BME280;63141;54.616;39.754;2022-12-29T08:56:27;100202.28;;;23.23;27.29
74637;BME280;63141;54.616;39.754;2022-12-29T08:59:31;100193.38;;;23.24;27.08
74637;BME280;63141;54.616;39.754;2022-12-29T09:02:32;100199.63;;;23.23;27.25
74637;BME280;63141;54.616;39.754;2022-12-29T09:05:39;100203.09;;;23.25;27.05
74637;BME280;63141;54.616;39.754;2022-12-29T09:08:40;100204.00;;;23.24;27.18
74637;BME280;63141;54.616;39.754;2022-12-29T09:11:41;100199.53;;;23.25;27.14
74637;BME280;63141;54.616;39.754;2022-12-29T09:14:43;100204.84;;;23.25;27.11
74637;BME280;63141;54.616;39.754;2022-12-29T09:17:45;100204.84;;;23.25;27.12
74637;BME280;63141;54.616;39.754;2022-12-29T09:20:46;100204.00;;;23.24;27.09
74637;BME280;63141;54.616;39.754;2022-12-29T09:23:48;100211.06;;;23.25;27.16
74637;BME280;63141;54.616;39.754;2022-12-29T09:26:49;100211.06;;;23.25;27.13
74637;BME280;63141;54.616;39.754;2022-12-29T09:29:51;100207.44;;;23.26;27.07
74637;BME280;63141;54.616;39.754;2022-12-29T09:32:52;100207.44;;;23.26;27.09
74637;BME280;63141;54.616;39.754;2022-12-29T09:35:55;100204.78;;;23.26;27.15
74637;BME280;63141;54.616;39.754;2022-12-29T09:38:57;100195.97;;;23.26;27.15
74637;BME280;63141;54.616;39.754;2022-12-29T09:45:28;100206.50;;;23.27;27.09
74637;BME280;63141;54.616;39.754;2022-12-29T09:48:39;100204.78;;;23.26;27.05
74637;BME280;63141;54.616;39.754;2022-12-29T09:51:46;100209.16;;;23.27;27.02
74637;BME280;63141;54.616;39.754;2022-12-29T09:54:56;100210.91;;;23.28;27.25
74637;BME280;63141;54.616;39.754;2022-12-29T09:58:02;100210.91;;;23.28;27.19
74637;BME280;63141;54.616;39.754;2022-12-29T10:01:28;100209.16;;;23.27;27.13
74637;BME280;63141;54.616;39.754;2022-12-29T10:04:31;100213.63;;;23.27;26.98
74637;BME280;63141;54.616;39.754;2022-12-29T10:17:40;100211.81;;;23.27;26.95
74637;BME280;63141;54.616;39.754;2022-12-29T10:21:08;100204.75;;;23.28;27.07
74637;BME280;63141;54.616;39.754;2022-12-29T10:24:19;100208.25;;;23.28;26.79
74637;BME280;63141;54.616;39.754;2022-12-29T10:27:30;100210.06;;;23.28;26.91
74637;BME280;63141;54.616;39.754;2022-12-29T10:30:33;100204.75;;;23.28;27.12
74637;BME280;63141;54.616;39.754;2022-12-29T10:33:39;100204.75;;;23.28;27.04
74637;BME280;63141;54.616;39.754;2022-12-29T10:36:43;100211.78;;;23.29;26.98
74637;BME280;63141;54.616;39.754;2022-12-29T10:39:49;100209.16;;;23.27;27.09
74637;BME280;63141;54.616;39.754;2022-12-29T10:42:57;100214.44;;;23.29;27.27
74637;BME280;63141;54.616;39.754;2022-12-29T10:46:10;100217.09;;;23.29;27.14
74637;BME280;63141;54.616;39.754;2022-12-29T10:49:16;100215.38;;;23.28;26.81
74637;BME280;63141;54.616;39.754;2022-12-29T10:52:20;100222.41;;;23.29;27.07
74637;BME280;63141;54.616;39.754;2022-12-29T10:55:27;100215.28;;;23.29;27.18
74637;BME280;63141;54.616;39.754;2022-12-29T10:58:30;100216.22;;;23.28;27.17
74637;BME280;63141;54.616;39.754;2022-12-29T11:01:49;100218.75;;;23.31;26.92
74637;BME280;63141;54.616;39.754;2022-12-29T11:05:19;100212.63;;;23.29;27.03
74637;BME280;63141;54.616;39.754;2022-12-29T11:08:34;100214.38;;;23.30;27.13
74637;BME280;63141;54.616;39.754;2022-12-29T11:11:37;100217.94;;;23.29;27.24
74637;BME280;63141;54.616;39.754;2022-12-29T11:14:38;100225.91;;;23.29;27.00
74637;BME280;63141;54.616;39.754;2022-12-29T11:17:48;100215.28;;;23.29;26.98
74637;BME280;63141;54.616;39.754;2022-12-29T11:20:55;100218.81;;;23.30;26.94
74637;BME280;63141;54.616;39.754;2022-12-29T11:24:04;100221.41;;;23.31;27.13
74637;BME280;63141;54.616;39.754;2022-12-29T11:27:24;100214.38;;;23.30;27.12
74637;BME280;63141;54.616;39.754;2022-12-29T11:30:29;100224.06;;;23.31;27.04
74637;BME280;63141;54.616;39.754;2022-12-29T11:33:31;100214.38;;;23.30;27.05
74637;BME280;63141;54.616;39.754;2022-12-29T11:36:34;100227.56;;;23.32;27.11
74637;BME280;63141;54.616;39.754;2022-12-29T11:39:41;100220.53;;;23.31;26.99
74637;BME280;63141;54.616;39.754;2022-12-29T11:42:53;100225.78;;;23.32;26.96
74637;BME280;63141;54.616;39.754;2022-12-29T11:45:56;100224.91;;;23.32;27.10
74637;BME280;63141;54.616;39.754;2022-12-29T11:48:58;100221.41;;;23.31;27.01
74637;BME280;63141;54.616;39.754;2022-12-29T11:52:01;100224.91;;;23.32;26.99
74637;BME280;63141;54.616;39.754;2022-12-29T11:55:04;100231.13;;;23.32;27.04
74637;BME280;63141;54.616;39.754;2022-12-29T11:58:14;100233.78;;;23.32;27.05
74637;BME280;63141;54.616;39.754;2022-12-29T12:01:24;100234.63;;;23.33;27.15
74637;BME280;63141;54.616;39.754;2022-12-29T12:04:30;100239.09;;;23.32;27.05
74637;BME280;63141;54.616;39.754;2022-12-29T12:07:41;100237.28;;;23.33;26.90
74637;BME280;63141;54.616;39.754;2022-12-29T12:11:09;100239.94;;;23.33;27.08
74637;BME280;63141;54.616;39.754;2022-12-29T12:14:34;100243.47;;;23.33;26.97
74637;BME280;63141;54.616;39.754;2022-12-29T12:17:59;100240.81;;;23.33;27.00
74637;BME280;63141;54.616;39.754;2022-12-29T12:21:13;100231.91;;;23.34;27.16
74637;BME280;63141;54.616;39.754;2022-12-29T12:30:36;100240.81;;;23.33;27.12
74637;BME280;63141;54.616;39.754;2022-12-29T12:33:43;100231.03;;;23.34;26.99
74637;BME280;63141;54.616;39.754;2022-12-29T12:43:41;100247.84;;;23.34;27.21
74637;BME280;63141;54.616;39.754;2022-12-29T13:00:02;100262.19;;;23.30;27.37
74637;BME280;63141;54.616;39.754;2022-12-29T13:03:14;100276.41;;;23.29;27.23
74637;BME280;63141;54.616;39.754;2022-12-29T13:06:42;100272.09;;;23.27;26.98
74637;BME280;63141;54.616;39.754;2022-12-29T13:10:19;100273.84;;;23.28;27.22
74637;BME280;63141;54.616;39.754;2022-12-29T13:17:25;100274.84;;;23.25;27.20
74637;BME280;63141;54.616;39.754;2022-12-29T13:31:12;100276.78;;;23.20;26.88
74637;BME280;63141;54.616;39.754;2022-12-29T13:38:17;100279.53;;;23.18;26.57
74637;BME280;63141;54.616;39.754;2022-12-29T13:41:37;100280.44;;;23.17;26.59
74637;BME280;63141;54.616;39.754;2022-12-29T13:44:47;100276.94;;;23.17;26.42
74637;BME280;63141;54.616;39.754;2022-12-29T13:51:01;100283.19;;;23.16;26.32
74637;BME280;63141;54.616;39.754;2022-12-29T13:57:15;100278.66;;;23.18;26.25
74637;BME280;63141;54.616;39.754;2022-12-29T14:00:22;100271.63;;;23.17;26.06
74637;BME280;63141;54.616;39.754;2022-12-29T14:06:46;100261.00;;;23.17;26.11
74637;BME280;63141;54.616;39.754;2022-12-29T14:09:57;100258.38;;;23.15;25.72
74637;BME280;63141;54.616;39.754;2022-12-29T14:13:18;100261.00;;;23.17;25.96
74637;BME280;63141;54.616;39.754;2022-12-29T14:16:26;100276.94;;;23.17;25.76
74637;BME280;63141;54.616;39.754;2022-12-29T14:19:32;100259.28;;;23.16;25.47
74637;BME280;63141;54.616;39.754;2022-12-29T14:26:00;100256.72;;;23.13;25.60
74637;BME280;63141;54.616;39.754;2022-12-29T14:35:47;100258.53;;;23.12;25.75
74637;BME280;63141;54.616;39.754;2022-12-29T14:38:52;100252.38;;;23.12;25.90
74637;BME280;63141;54.616;39.754;2022-12-29T14:51:31;100252.22;;;23.15;26.24
74637;BME280;63141;54.616;39.754;2022-12-29T14:57:41;100245.19;;;23.14;26.36
74637;BME280;63141;54.616;39.754;2022-12-29T15:00:46;100245.09;;;23.15;26.39
74637;BME280;63141;54.616;39.754;2022-12-29T15:06:53;100241.59;;;23.15;26.49
74637;BME280;63141;54.616;39.754;2022-12-29T15:10:00;100231.81;;;23.15;26.58
74637;BME280;63141;54.616;39.754;2022-12-29T15:13:13;100247.75;;;23.15;26.62
74637;BME280;63141;54.616;39.754;2022-12-29T15:16:29;100246.91;;;23.15;26.55
74637;BME280;63141;54.616;39.754;2022-12-29T15:19:30;100238.94;;;23.15;26.57
74637;BME280;63141;54.616;39.754;2022-12-29T15:22:32;100249.50;;;23.16;26.49
74637;BME280;63141;54.616;39.754;2022-12-29T15:25:35;100245.91;;;23.17;26.46
74637;BME280;63141;54.616;39.754;2022-12-29T15:28:42;100251.22;;;23.17;26.37
74637;BME280;63141;54.616;39.754;2022-12-29T15:38:30;100246.00;;;23.16;26.23
74637;BME280;63141;54.616;39.754;2022-12-29T15:44:56;100237.06;;;23.17;26.56
74637;BME280;63141;54.616;39.754;2022-12-29T15:47:58;100234.41;;;23.17;26.42
74637;BME280;63141;54.616;39.754;2022-12-29T15:51:00;100239.72;;;23.17;26.54
74637;BME280;63141;54.616;39.754;2022-12-29T15:54:02;100242.34;;;23.18;26.63
74637;BME280;63141;54.616;39.754;2022-12-29T15:57:04;100231.72;;;23.18;26.45
74637;BME280;63141;54.616;39.754;2022-12-29T16:00:24;100241.44;;;23.18;26.52
74637;BME280;63141;54.616;39.754;2022-12-29T16:03:33;100243.19;;;23.19;26.50
74637;BME280;63141;54.616;39.754;2022-12-29T16:06:44;100245.91;;;23.17;26.45
74637;BME280;63141;54.616;39.754;2022-12-29T16:09:45;100237.88;;;23.19;26.42
74637;BME280;63141;54.616;39.754;2022-12-29T16:12:47;100240.53;;;23.19;26.55
74637;BME280;63141;54.616;39.754;2022-12-29T16:15:55;100236.94;;;23.20;26.38
74637;BME280;63141;54.616;39.754;2022-12-29T16:18:58;100236.03;;;23.21;26.53
74637;BME280;63141;54.616;39.754;2022-12-29T16:22:00;100224.44;;;23.22;26.55
74637;BME280;63141;54.616;39.754;2022-12-29T16:28:23;100225.25;;;23.24;26.63
74637;BME280;63141;54.616;39.754;2022-12-29T16:31:47;100226.09;;;23.25;26.60
74637;BME280;63141;54.616;39.754;2022-12-29T16:34:51;100224.41;;;23.24;26.64
74637;BME280;63141;54.616;39.754;2022-12-29T16:38:21;100223.41;;;23.26;26.65
74637;BME280;63141;54.616;39.754;2022-12-29T16:41:31;100223.41;;;23.26;26.74
74637;BME280;63141;54.616;39.754;2022-12-29T16:44:32;100213.72;;;23.25;26.63
74637;BME280;63141;54.616;39.754;2022-12-29T16:47:34;100224.25;;;23.27;26.67
74637;BME280;63141;54.616;39.754;2022-12-29T16:50:37;100215.44;;;23.26;26.67
74637;BME280;63141;54.616;39.754;2022-12-29T16:53:41;100214.47;;;23.27;26.74
74637;BME280;63141;54.616;39.754;2022-12-29T16:56:48;100215.38;;;23.28;26.60
74637;BME280;63141;54.616;39.754;2022-12-29T16:59:51;100211.78;;;23.29;27.06
74637;BME280;63141;54.616;39.754;2022-12-29T17:02:57;100206.44;;;23.29;26.80
74637;BME280;63141;54.616;39.754;2022-12-29T17:06:05;100202.88;;;23.30;26.67
74637;BME280;63141;54.616;39.754;2022-12-29T17:09:27;100209.06;;;23.30;26.74
74637;BME280;63141;54.616;39.754;2022-12-29T17:12:29;100209.97;;;23.29;26.87
74637;BME280;63141;54.616;39.754;2022-12-29T17:15:50;100209.06;;;23.30;26.79
74637;BME280;63141;54.616;39.754;2022-12-29T17:18:51;100211.72;;;23.30;26.75
74637;BME280;63141;54.616;39.754;2022-12-29T17:21:52;100202.00;;;23.29;26.85
74637;BME280;63141;54.616;39.754;2022-12-29T17:24:55;100187.78;;;23.30;26.91
74637;BME280;63141;54.616;39.754;2022-12-29T17:28:04;100186.84;;;23.31;26.86
74637;BME280;63141;54.616;39.754;2022-12-29T17:31:26;100179.72;;;23.32;26.68
74637;BME280;63141;54.616;39.754;2022-12-29T17:34:28;100185.03;;;23.32;26.83
74637;BME280;63141;54.616;39.754;2022-12-29T17:37:35;100179.72;;;23.32;26.80
74637;BME280;63141;54.616;39.754;2022-12-29T17:40:37;100185.03;;;23.32;26.72
74637;BME280;63141;54.616;39.754;2022-12-29T17:43:39;100184.19;;;23.31;26.79
74637;BME280;63141;54.616;39.754;2022-12-29T17:46:40;100180.63;;;23.32;26.96
74637;BME280;63141;54.616;39.754;2022-12-29T17:49:42;100185.03;;;23.32;26.85
74637;BME280;63141;54.616;39.754;2022-12-29T17:53:01;100183.28;;;23.32;26.91
74637;BME280;63141;54.616;39.754;2022-12-29T17:56:03;100179.72;;;23.32;26.87
74637;BME280;63141;54.616;39.754;2022-12-29T17:59:11;100175.31;;;23.32;26.89
74637;BME280;63141;54.616;39.754;2022-12-29T18:02:29;100176.09;;;23.34;26.78
74637;BME280;63141;54.616;39.754;2022-12-29T18:05:31;100171.69;;;23.33;26.98
74637;BME280;63141;54.616;39.754;2022-12-29T18:11:55;100165.53;;;23.33;27.04
74637;BME280;63141;54.616;39.754;2022-12-29T18:14:57;100177.00;;;23.33;27.02
74637;BME280;63141;54.616;39.754;2022-12-29T18:18:05;100182.28;;;23.35;26.93
74637;BME280;63141;54.616;39.754;2022-12-29T18:21:15;100177.00;;;23.33;27.08
74637;BME280;63141;54.616;39.754;2022-12-29T18:24:16;100167.25;;;23.34;26.95
74637;BME280;63141;54.616;39.754;2022-12-29T18:27:18;100161.94;;;23.34;27.05
74637;BME280;63141;54.616;39.754;2022-12-29T18:30:22;100168.13;;;23.34;27.05
74637;BME280;63141;54.616;39.754;2022-12-29T18:33:23;100169.84;;;23.35;26.97
74637;BME280;63141;54.616;39.754;2022-12-29T18:36:26;100162.72;;;23.36;27.12
74637;BME280;63141;54.616;39.754;2022-12-29T18:39:27;100166.25;;;23.36;27.12
74637;BME280;63141;54.616;39.754;2022-12-29T18:42:29;100160.91;;;23.36;27.22
74637;BME280;63141;54.616;39.754;2022-12-29T18:45:31;100160.91;;;23.36;27.05